createdAt,value
2023-07-21T00:05:01.074Z,79.93
2023-07-21T00:12:35.882Z,80.66
2023-07-21T00:20:16.080Z,81.80
2023-07-21T00:27:50.352Z,82.44
2023-07-21T00:35:25.848Z,82.84
2023-07-21T00:43:00.213Z,83.61
2023-07-21T00:50:38.572Z,83.74
2023-07-21T00:58:13.011Z,84.70
2023-07-21T01:05:51.368Z,85.14
2023-07-21T01:13:27.789Z,85.89
2023-07-21T01:21:04.310Z,85.63
2023-07-21T01:28:43.769Z,86.32
2023-07-21T01:36:19.096Z,87.73
2023-07-21T01:43:56.325Z,92.27
2023-07-21T01:51:32.662Z,93.65
2023-07-21T01:59:12.846Z,93.41
2023-07-21T02:06:49.012Z,93.32
2023-07-21T02:14:24.733Z,93.76
2023-07-21T02:22:00.348Z,94.04
2023-07-21T02:29:35.844Z,92.46
2023-07-21T02:37:09.809Z,93.32
2023-07-21T02:44:46.324Z,94.82
2023-07-21T02:52:20.270Z,96.86
2023-07-21T02:59:56.269Z,96.78
2023-07-21T03:07:30.264Z,94.00
2023-07-21T03:15:07.167Z,91.94
2023-07-21T03:22:41.132Z,92.44
2023-07-21T03:30:17.195Z,94.08
2023-07-21T03:37:51.166Z,95.75
2023-07-21T03:45:27.303Z,97.94
2023-07-21T03:53:01.448Z,100.00
2023-07-21T04:00:38.546Z,100.00
2023-07-21T04:08:12.961Z,100.00
2023-07-21T04:15:52.545Z,100.00
2023-07-21T04:23:26.438Z,100.00
2023-07-21T04:31:02.534Z,100.00
2023-07-21T04:38:37.406Z,100.00
2023-07-21T04:46:13.538Z,100.00
2023-07-21T04:53:47.385Z,100.00
2023-07-21T05:01:23.274Z,100.00
2023-07-21T05:08:57.279Z,100.00
2023-07-21T05:16:33.261Z,100.00
2023-07-21T05:24:07.371Z,100.00
2023-07-21T05:31:43.150Z,100.00
2023-07-21T05:39:18.474Z,100.00
2023-07-21T05:46:54.802Z,100.00
2023-07-21T05:54:29.429Z,96.44
2023-07-21T06:02:06.238Z,93.04
2023-07-21T06:09:40.471Z,92.26
2023-07-21T06:17:15.999Z,93.17
2023-07-21T06:24:50.644Z,93.01
2023-07-21T06:32:27.974Z,91.69
2023-07-21T06:40:05.426Z,90.20
2023-07-21T06:47:41.102Z,87.51
2023-07-21T06:55:15.280Z,78.14
2023-07-21T07:02:50.925Z,76.79
2023-07-21T07:10:25.312Z,76.88
2023-07-21T07:18:01.011Z,77.46
2023-07-21T07:25:35.750Z,78.30
2023-07-21T07:33:12.175Z,76.68
2023-07-21T07:40:46.280Z,74.39
2023-07-21T07:48:23.519Z,69.35
2023-07-21T07:55:58.588Z,69.55
2023-07-21T08:03:36.648Z,67.70
2023-07-21T08:11:10.913Z,65.43
2023-07-21T08:26:37.232Z,62.33
2023-07-21T08:34:12.481Z,61.57
2023-07-21T08:41:48.787Z,61.31
2023-07-21T08:49:24.152Z,60.35
2023-07-21T08:56:58.144Z,59.50
2023-07-21T09:04:33.636Z,58.41
2023-07-21T09:12:10.409Z,60.22
2023-07-21T09:19:47.833Z,58.72
2023-07-21T09:27:22.496Z,57.96
2023-07-21T09:35:02.086Z,58.43
2023-07-21T09:42:36.490Z,59.42
2023-07-21T09:50:12.644Z,64.50
2023-07-21T09:57:49.445Z,63.85
2023-07-21T10:05:26.512Z,63.74
2023-07-21T10:13:06.654Z,65.17
2023-07-21T10:20:44.428Z,65.59
2023-07-21T10:28:23.823Z,62.77
2023-07-21T10:36:15.109Z,60.59
2023-07-21T10:43:49.202Z,56.45
2023-07-21T10:51:24.733Z,56.13
2023-07-21T10:58:59.192Z,53.57
2023-07-21T11:06:34.549Z,53.83
2023-07-21T11:14:12.573Z,53.42
2023-07-21T11:21:50.833Z,53.88
2023-07-21T11:29:27.191Z,53.02
2023-07-21T11:37:05.788Z,55.11
2023-07-21T11:44:39.741Z,55.07
2023-07-21T11:52:26.032Z,55.73
2023-07-21T12:00:00.906Z,57.94
2023-07-21T12:07:36.215Z,58.25
2023-07-21T12:15:14.332Z,56.68
2023-07-21T12:22:50.005Z,57.25
2023-07-21T12:30:24.343Z,56.81
2023-07-21T12:38:00.199Z,57.97
2023-07-21T12:45:34.160Z,60.39
2023-07-21T12:53:09.632Z,59.32
2023-07-21T13:08:36.785Z,57.58
2023-07-21T13:16:11.340Z,58.05
2023-07-21T13:23:46.610Z,57.93
2023-07-21T13:31:20.819Z,57.65
2023-07-21T13:38:56.134Z,60.24
2023-07-21T13:46:30.565Z,57.06
2023-07-21T13:54:06.960Z,57.62
2023-07-21T14:01:42.898Z,55.75
2023-07-21T14:09:18.995Z,54.63
2023-07-21T14:16:54.799Z,52.64
2023-07-21T14:24:30.646Z,52.14
2023-07-21T14:32:04.803Z,51.30
2023-07-21T14:39:40.932Z,51.81
2023-07-21T14:47:15.006Z,51.08
2023-07-21T14:54:50.387Z,50.92
2023-07-21T15:02:24.398Z,49.94
2023-07-21T15:10:00.052Z,50.83
2023-07-21T15:17:34.236Z,50.50
2023-07-21T15:25:10.896Z,50.64
2023-07-21T15:32:44.965Z,50.28
2023-07-21T15:40:20.947Z,50.83
2023-07-21T15:47:54.955Z,49.44
2023-07-21T15:55:32.365Z,49.56
2023-07-21T16:03:07.553Z,47.30
2023-07-21T16:10:47.829Z,46.80
2023-07-21T16:18:23.549Z,45.54
2023-07-21T16:26:00.028Z,46.68
2023-07-21T16:33:35.278Z,46.98
2023-07-21T16:41:11.389Z,47.50
2023-07-21T16:48:45.881Z,47.63
2023-07-21T16:56:21.258Z,48.15
2023-07-21T17:03:55.206Z,48.34
2023-07-21T17:11:30.695Z,49.59
2023-07-21T17:19:05.489Z,56.21
2023-07-21T17:26:40.832Z,100.00
2023-07-21T17:34:15.020Z,100.00
2023-07-21T17:41:50.447Z,100.00
2023-07-21T17:49:24.345Z,100.00
2023-07-21T17:56:59.787Z,100.00
2023-07-21T18:04:33.846Z,100.00
2023-07-21T18:12:10.205Z,100.00
2023-07-21T18:19:44.425Z,100.00
2023-07-21T18:27:19.866Z,100.00
2023-07-21T18:34:54.199Z,100.00
2023-07-21T18:42:29.666Z,100.00
2023-07-21T18:50:03.870Z,100.00
2023-07-21T18:57:39.677Z,100.00
2023-07-21T19:05:14.180Z,100.00
2023-07-21T19:12:49.561Z,100.00
2023-07-21T19:20:23.805Z,100.00
2023-07-21T19:27:59.797Z,100.00
2023-07-21T19:35:37.596Z,100.00
2023-07-21T19:43:12.924Z,100.00
2023-07-21T19:50:46.787Z,100.00
2023-07-21T19:58:22.084Z,100.00
2023-07-21T20:05:56.077Z,100.00
2023-07-21T20:13:31.402Z,100.00
2023-07-21T20:21:06.720Z,100.00
2023-07-21T20:28:42.372Z,100.00
2023-07-21T20:36:16.355Z,100.00
2023-07-21T20:43:52.102Z,100.00
2023-07-21T20:51:27.832Z,100.00
2023-07-21T20:59:04.559Z,100.00
2023-07-21T21:06:38.543Z,100.00
2023-07-21T21:14:14.511Z,100.00
2023-07-21T21:21:48.455Z,100.00
2023-07-21T21:29:23.822Z,100.00
2023-07-21T21:36:57.735Z,100.00
2023-07-21T21:44:33.921Z,100.00
2023-07-21T21:52:08.488Z,100.00
2023-07-21T21:59:47.781Z,100.00
2023-07-21T22:07:23.717Z,100.00
2023-07-21T22:15:03.233Z,100.00
2023-07-21T22:22:39.049Z,100.00
2023-07-21T22:30:14.956Z,100.00
2023-07-21T22:37:48.856Z,100.00
2023-07-21T22:45:24.264Z,100.00
2023-07-21T22:52:59.897Z,100.00
2023-07-21T23:00:35.349Z,100.00
2023-07-21T23:08:09.388Z,100.00
2023-07-21T23:15:45.067Z,100.00
2023-07-21T23:23:19.087Z,100.00
2023-07-21T23:30:59.859Z,100.00
2023-07-21T23:38:34.017Z,100.00
2023-07-21T23:46:09.547Z,100.00
2023-07-21T23:53:43.469Z,100.00
